الصفحة الرئيسية
METAR-TAF:

METAR-TAF

مطار :

RAAF Base Amberley

Ipswich, أستراليا

دائرة عرض: 27-38-26S, خط طول: 152-42-43E, ارتفاع: 28 متر

مراقبة الطقس الحالي

تاريخ ووقت الإصدار 40 دقيقة قبل الساعة 05:00UTC
ريح 5 عقدة من الجنوب الغربي
درجة الحرارة 28°درجة مئوية
الرطوبة 32%
ضغط 1013 hPa
الرؤية 10 كم أو أكثر
الغيوم لا تقل 1500 م ولا وجود لمزنة ركامية السحاب الأسود

METAR: YAMB 060500Z 23005KT CAVOK 28/10 Q1013 NOSIG

زمن: 15:40 (05:40 UTC)

توقعات

تاريخ ووقت الإصدار 6ساعات و 16 دقيقة قبل الساعة 23:24UTC
التوقعات صالحة من06 الساعة 00 UTC إلى 06 الساعة 18 UTC
ريح 5 عقدة من الشرق/الجنوب الشرقي
الرؤية 10 كم أو أكثر
غيوم قليلة على ارتفاع 3500 قدم
من 06 الساعة 0400 UTC
ريح 10 عقدة من الشرق
الرؤية 10 كم أو أكثر
الغيوم لا تقل 1500 م ولا وجود لمزنة ركامية السحاب الأسود
من 06 الساعة 1000 UTC
ريح 6 عقدة من الشرق/الجنوب الشرقي
الرؤية 10 كم أو أكثر
غيوم متفرقة على ارتفاع 3500 قدم

TAF: YAMB 052324Z 0600/0618 12005KT 9999 FEW035 FM060400 09010KT CAVOK FM061000 12006KT 9999 SCT035

أرصاد الطقس والتوقعات من أكثر من 4000 مطار (تقارير الطقس للمطار METAR والتنبؤ بالطقس بالمطارTAF).

المحطات المتاحة هي النقط الصفراء والحمراء على الخريطة.

حرك المؤشر فوق النقطة لمعرفة اسم المحطة.

ثم انقر لمعرفة أرصاد وتوقعات الطقس.

لتغيير الخارطة: اضغط على الأزرار الخضراء مع رمز الصليب الأسود للتكبير. على الزر الأخضر مع شرطة للتصغير، أو على الأسهم الخضراء للخرائط المجاورة.


METAR-TAF: